sensor_id;sensor_type;location;lat;lon;timestamp;P1;durP1;ratioP1;P2;durP2;ratioP2
25359;SDS011;13311;51.386;0.016;2023-05-13T00:03:11;16.83;;;9.40;;
25359;SDS011;13311;51.386;0.016;2023-05-13T00:08:11;14.70;;;8.95;;
25359;SDS011;13311;51.386;0.016;2023-05-13T00:13:12;18.65;;;10.65;;
25359;SDS011;13311;51.386;0.016;2023-05-13T00:18:13;17.33;;;9.45;;
25359;SDS011;13311;51.386;0.016;2023-05-13T00:23:13;17.02;;;9.02;;
25359;SDS011;13311;51.386;0.016;2023-05-13T00:28:14;12.18;;;7.70;;
25359;SDS011;13311;51.386;0.016;2023-05-13T00:33:15;16.00;;;9.27;;
25359;SDS011;13311;51.386;0.016;2023-05-13T00:38:16;25.38;;;10.75;;
25359;SDS011;13311;51.386;0.016;2023-05-13T00:43:16;17.23;;;9.57;;
25359;SDS011;13311;51.386;0.016;2023-05-13T00:48:17;17.15;;;9.25;;
25359;SDS011;13311;51.386;0.016;2023-05-13T00:53:18;13.80;;;8.55;;
25359;SDS011;13311;51.386;0.016;2023-05-13T00:58:19;17.27;;;9.93;;
25359;SDS011;13311;51.386;0.016;2023-05-13T01:03:27;11.05;;;6.68;;
25359;SDS011;13311;51.386;0.016;2023-05-13T01:08:56;18.13;;;8.93;;
25359;SDS011;13311;51.386;0.016;2023-05-13T01:14:18;15.07;;;8.65;;
25359;SDS011;13311;51.386;0.016;2023-05-13T01:19:30;15.52;;;8.23;;
25359;SDS011;13311;51.386;0.016;2023-05-13T01:24:40;18.75;;;9.32;;
25359;SDS011;13311;51.386;0.016;2023-05-13T01:29:41;15.55;;;9.75;;
25359;SDS011;13311;51.386;0.016;2023-05-13T01:34:43;16.92;;;8.77;;
25359;SDS011;13311;51.386;0.016;2023-05-13T01:39:45;20.10;;;9.32;;
25359;SDS011;13311;51.386;0.016;2023-05-13T01:44:46;16.90;;;8.95;;
25359;SDS011;13311;51.386;0.016;2023-05-13T01:49:47;14.73;;;8.07;;
25359;SDS011;13311;51.386;0.016;2023-05-13T01:54:48;17.10;;;8.80;;
25359;SDS011;13311;51.386;0.016;2023-05-13T01:59:48;14.43;;;9.50;;
25359;SDS011;13311;51.386;0.016;2023-05-13T02:04:49;18.50;;;8.85;;
25359;SDS011;13311;51.386;0.016;2023-05-13T02:09:50;16.27;;;8.80;;
25359;SDS011;13311;51.386;0.016;2023-05-13T02:14:54;18.25;;;8.05;;
25359;SDS011;13311;51.386;0.016;2023-05-13T02:19:55;14.35;;;8.73;;
25359;SDS011;13311;51.386;0.016;2023-05-13T02:24:55;16.92;;;9.45;;
25359;SDS011;13311;51.386;0.016;2023-05-13T02:29:57;18.08;;;8.43;;
25359;SDS011;13311;51.386;0.016;2023-05-13T02:34:57;15.40;;;9.00;;
25359;SDS011;13311;51.386;0.016;2023-05-13T02:39:58;13.85;;;8.77;;
25359;SDS011;13311;51.386;0.016;2023-05-13T02:44:59;14.13;;;7.55;;
25359;SDS011;13311;51.386;0.016;2023-05-13T02:49:59;13.98;;;8.13;;
25359;SDS011;13311;51.386;0.016;2023-05-13T02:55:01;18.38;;;9.10;;
25359;SDS011;13311;51.386;0.016;2023-05-13T03:00:02;16.50;;;8.35;;
25359;SDS011;13311;51.386;0.016;2023-05-13T03:05:04;16.90;;;9.52;;
25359;SDS011;13311;51.386;0.016;2023-05-13T03:10:06;13.02;;;7.88;;
25359;SDS011;13311;51.386;0.016;2023-05-13T03:15:08;24.08;;;10.05;;
25359;SDS011;13311;51.386;0.016;2023-05-13T03:20:10;15.68;;;9.70;;
25359;SDS011;13311;51.386;0.016;2023-05-13T03:25:11;15.77;;;10.02;;
25359;SDS011;13311;51.386;0.016;2023-05-13T03:30:12;17.90;;;10.30;;
25359;SDS011;13311;51.386;0.016;2023-05-13T03:35:13;18.30;;;10.48;;
25359;SDS011;13311;51.386;0.016;2023-05-13T03:40:13;17.42;;;10.52;;
25359;SDS011;13311;51.386;0.016;2023-05-13T03:45:14;18.95;;;8.77;;
25359;SDS011;13311;51.386;0.016;2023-05-13T03:50:15;16.75;;;7.53;;
25359;SDS011;13311;51.386;0.016;2023-05-13T03:55:16;14.73;;;9.57;;
25359;SDS011;13311;51.386;0.016;2023-05-13T04:00:17;18.30;;;8.50;;
25359;SDS011;13311;51.386;0.016;2023-05-13T04:05:18;14.02;;;8.30;;
25359;SDS011;13311;51.386;0.016;2023-05-13T04:10:18;17.55;;;8.88;;
25359;SDS011;13311;51.386;0.016;2023-05-13T04:15:19;16.70;;;9.68;;
25359;SDS011;13311;51.386;0.016;2023-05-13T04:20:20;15.65;;;9.27;;
25359;SDS011;13311;51.386;0.016;2023-05-13T04:25:21;13.25;;;8.38;;
25359;SDS011;13311;51.386;0.016;2023-05-13T04:30:22;18.17;;;10.10;;
25359;SDS011;13311;51.386;0.016;2023-05-13T04:35:22;14.88;;;9.43;;
25359;SDS011;13311;51.386;0.016;2023-05-13T04:40:23;12.60;;;6.72;;
25359;SDS011;13311;51.386;0.016;2023-05-13T04:45:25;26.30;;;9.85;;
25359;SDS011;13311;51.386;0.016;2023-05-13T04:50:26;14.82;;;8.98;;
25359;SDS011;13311;51.386;0.016;2023-05-13T04:55:26;16.90;;;9.68;;
25359;SDS011;13311;51.386;0.016;2023-05-13T05:00:27;15.75;;;9.60;;
25359;SDS011;13311;51.386;0.016;2023-05-13T05:05:28;24.27;;;9.57;;
25359;SDS011;13311;51.386;0.016;2023-05-13T05:10:29;8.35;;;6.55;;
25359;SDS011;13311;51.386;0.016;2023-05-13T05:15:29;17.90;;;10.27;;
25359;SDS011;13311;51.386;0.016;2023-05-13T05:20:30;13.98;;;9.68;;
25359;SDS011;13311;51.386;0.016;2023-05-13T05:25:31;16.10;;;8.75;;
25359;SDS011;13311;51.386;0.016;2023-05-13T05:30:31;13.93;;;8.70;;
25359;SDS011;13311;51.386;0.016;2023-05-13T05:35:38;15.02;;;9.35;;
25359;SDS011;13311;51.386;0.016;2023-05-13T05:40:39;17.48;;;9.10;;
25359;SDS011;13311;51.386;0.016;2023-05-13T05:45:42;20.77;;;10.60;;
25359;SDS011;13311;51.386;0.016;2023-05-13T05:50:43;11.48;;;6.53;;
25359;SDS011;13311;51.386;0.016;2023-05-13T05:55:44;18.05;;;8.85;;
25359;SDS011;13311;51.386;0.016;2023-05-13T06:00:44;14.45;;;8.90;;
25359;SDS011;13311;51.386;0.016;2023-05-13T06:05:45;14.38;;;7.35;;
25359;SDS011;13311;51.386;0.016;2023-05-13T06:10:46;17.30;;;8.85;;
25359;SDS011;13311;51.386;0.016;2023-05-13T06:15:46;17.30;;;9.88;;
25359;SDS011;13311;51.386;0.016;2023-05-13T06:20:47;17.13;;;10.55;;
25359;SDS011;13311;51.386;0.016;2023-05-13T06:25:48;24.05;;;10.15;;
25359;SDS011;13311;51.386;0.016;2023-05-13T06:30:49;14.43;;;10.20;;
25359;SDS011;13311;51.386;0.016;2023-05-13T06:35:49;10.05;;;7.15;;
25359;SDS011;13311;51.386;0.016;2023-05-13T06:40:50;13.38;;;7.95;;
25359;SDS011;13311;51.386;0.016;2023-05-13T06:45:51;16.77;;;7.78;;
25359;SDS011;13311;51.386;0.016;2023-05-13T06:50:51;10.85;;;7.32;;
25359;SDS011;13311;51.386;0.016;2023-05-13T06:55:52;12.15;;;7.80;;
25359;SDS011;13311;51.386;0.016;2023-05-13T07:00:53;19.45;;;8.63;;
25359;SDS011;13311;51.386;0.016;2023-05-13T07:05:53;10.40;;;7.25;;
25359;SDS011;13311;51.386;0.016;2023-05-13T07:10:54;12.05;;;8.13;;
25359;SDS011;13311;51.386;0.016;2023-05-13T07:15:56;13.95;;;8.27;;
25359;SDS011;13311;51.386;0.016;2023-05-13T07:20:56;12.25;;;8.85;;
25359;SDS011;13311;51.386;0.016;2023-05-13T07:25:57;9.98;;;6.10;;
25359;SDS011;13311;51.386;0.016;2023-05-13T07:30:58;19.13;;;10.18;;
25359;SDS011;13311;51.386;0.016;2023-05-13T07:35:58;12.18;;;9.25;;
25359;SDS011;13311;51.386;0.016;2023-05-13T07:40:59;16.35;;;8.50;;
25359;SDS011;13311;51.386;0.016;2023-05-13T07:46:00;16.17;;;9.65;;
25359;SDS011;13311;51.386;0.016;2023-05-13T07:51:02;16.73;;;9.27;;
25359;SDS011;13311;51.386;0.016;2023-05-13T07:56:04;13.85;;;8.95;;
25359;SDS011;13311;51.386;0.016;2023-05-13T08:01:04;20.02;;;9.38;;
25359;SDS011;13311;51.386;0.016;2023-05-13T08:06:07;13.55;;;8.55;;
25359;SDS011;13311;51.386;0.016;2023-05-13T08:11:07;13.05;;;8.10;;
25359;SDS011;13311;51.386;0.016;2023-05-13T08:16:08;15.52;;;8.63;;
25359;SDS011;13311;51.386;0.016;2023-05-13T08:21:09;16.15;;;8.80;;
25359;SDS011;13311;51.386;0.016;2023-05-13T08:26:09;14.40;;;8.50;;
25359;SDS011;13311;51.386;0.016;2023-05-13T08:31:11;13.52;;;8.48;;
25359;SDS011;13311;51.386;0.016;2023-05-13T08:36:12;14.48;;;8.45;;
25359;SDS011;13311;51.386;0.016;2023-05-13T08:41:14;15.88;;;9.52;;
25359;SDS011;13311;51.386;0.016;2023-05-13T08:46:15;12.30;;;8.95;;
25359;SDS011;13311;51.386;0.016;2023-05-13T08:51:17;12.15;;;8.57;;
25359;SDS011;13311;51.386;0.016;2023-05-13T08:56:18;9.18;;;6.97;;
25359;SDS011;13311;51.386;0.016;2023-05-13T09:01:21;9.57;;;6.50;;
25359;SDS011;13311;51.386;0.016;2023-05-13T09:06:23;12.45;;;7.20;;
25359;SDS011;13311;51.386;0.016;2023-05-13T09:11:24;13.55;;;8.75;;
25359;SDS011;13311;51.386;0.016;2023-05-13T09:16:26;14.05;;;8.88;;
25359;SDS011;13311;51.386;0.016;2023-05-13T09:21:32;15.63;;;7.78;;
25359;SDS011;13311;51.386;0.016;2023-05-13T09:31:38;13.38;;;7.05;;
25359;SDS011;13311;51.386;0.016;2023-05-13T09:36:39;16.27;;;7.38;;
25359;SDS011;13311;51.386;0.016;2023-05-13T09:41:40;17.25;;;8.80;;
25359;SDS011;13311;51.386;0.016;2023-05-13T09:46:41;13.93;;;7.50;;
25359;SDS011;13311;51.386;0.016;2023-05-13T09:51:43;12.88;;;8.30;;
25359;SDS011;13311;51.386;0.016;2023-05-13T09:56:44;9.13;;;5.85;;
25359;SDS011;13311;51.386;0.016;2023-05-13T10:01:45;9.82;;;6.35;;
25359;SDS011;13311;51.386;0.016;2023-05-13T10:06:47;8.27;;;6.50;;
25359;SDS011;13311;51.386;0.016;2023-05-13T10:11:48;10.30;;;7.10;;
25359;SDS011;13311;51.386;0.016;2023-05-13T10:16:49;10.38;;;6.72;;
25359;SDS011;13311;51.386;0.016;2023-05-13T10:21:51;9.18;;;7.30;;
25359;SDS011;13311;51.386;0.016;2023-05-13T10:26:53;10.50;;;5.97;;
25359;SDS011;13311;51.386;0.016;2023-05-13T10:32:01;10.23;;;8.25;;
25359;SDS011;13311;51.386;0.016;2023-05-13T10:37:22;11.07;;;6.25;;
25359;SDS011;13311;51.386;0.016;2023-05-13T10:43:17;13.48;;;6.53;;
25359;SDS011;13311;51.386;0.016;2023-05-13T10:48:36;4.75;;;4.20;;
25359;SDS011;13311;51.386;0.016;2023-05-13T10:53:46;17.33;;;8.18;;
25359;SDS011;13311;51.386;0.016;2023-05-13T10:58:56;12.63;;;7.78;;
25359;SDS011;13311;51.386;0.016;2023-05-13T11:04:04;11.20;;;6.25;;
25359;SDS011;13311;51.386;0.016;2023-05-13T11:09:06;13.13;;;7.32;;
25359;SDS011;13311;51.386;0.016;2023-05-13T11:14:24;9.15;;;6.95;;
25359;SDS011;13311;51.386;0.016;2023-05-13T11:19:27;8.77;;;6.88;;
25359;SDS011;13311;51.386;0.016;2023-05-13T11:24:34;9.37;;;6.07;;
25359;SDS011;13311;51.386;0.016;2023-05-13T11:29:35;10.13;;;6.30;;
25359;SDS011;13311;51.386;0.016;2023-05-13T11:34:37;9.73;;;7.30;;
25359;SDS011;13311;51.386;0.016;2023-05-13T11:39:49;10.23;;;6.47;;
25359;SDS011;13311;51.386;0.016;2023-05-13T11:44:50;11.02;;;6.95;;
25359;SDS011;13311;51.386;0.016;2023-05-13T11:49:52;13.77;;;6.90;;
25359;SDS011;13311;51.386;0.016;2023-05-13T11:54:53;12.52;;;7.68;;
25359;SDS011;13311;51.386;0.016;2023-05-13T12:05:07;9.93;;;7.05;;
25359;SDS011;13311;51.386;0.016;2023-05-13T12:10:10;6.95;;;5.40;;
25359;SDS011;13311;51.386;0.016;2023-05-13T12:15:17;11.00;;;7.97;;
25359;SDS011;13311;51.386;0.016;2023-05-13T12:20:22;10.70;;;7.28;;
25359;SDS011;13311;51.386;0.016;2023-05-13T12:25:36;12.68;;;8.40;;
25359;SDS011;13311;51.386;0.016;2023-05-13T12:41:35;7.93;;;5.65;;
25359;SDS011;13311;51.386;0.016;2023-05-13T12:46:49;15.82;;;8.60;;
25359;SDS011;13311;51.386;0.016;2023-05-13T12:51:51;11.48;;;7.28;;
25359;SDS011;13311;51.386;0.016;2023-05-13T12:56:51;12.63;;;7.97;;
25359;SDS011;13311;51.386;0.016;2023-05-13T13:01:52;13.98;;;7.97;;
25359;SDS011;13311;51.386;0.016;2023-05-13T13:06:52;11.52;;;7.15;;
25359;SDS011;13311;51.386;0.016;2023-05-13T13:11:53;9.70;;;5.95;;
25359;SDS011;13311;51.386;0.016;2023-05-13T13:16:54;10.60;;;7.30;;
25359;SDS011;13311;51.386;0.016;2023-05-13T13:21:54;11.55;;;6.75;;
25359;SDS011;13311;51.386;0.016;2023-05-13T13:26:55;16.88;;;8.07;;
25359;SDS011;13311;51.386;0.016;2023-05-13T13:31:56;10.90;;;7.55;;
25359;SDS011;13311;51.386;0.016;2023-05-13T13:36:57;10.55;;;7.30;;
25359;SDS011;13311;51.386;0.016;2023-05-13T13:41:57;15.98;;;8.48;;
25359;SDS011;13311;51.386;0.016;2023-05-13T13:46:58;11.70;;;6.63;;
25359;SDS011;13311;51.386;0.016;2023-05-13T13:51:59;13.88;;;6.78;;
25359;SDS011;13311;51.386;0.016;2023-05-13T13:56:59;7.43;;;5.70;;
25359;SDS011;13311;51.386;0.016;2023-05-13T14:02:00;10.93;;;6.82;;
25359;SDS011;13311;51.386;0.016;2023-05-13T14:07:01;10.00;;;6.65;;
25359;SDS011;13311;51.386;0.016;2023-05-13T14:12:02;8.32;;;6.70;;
25359;SDS011;13311;51.386;0.016;2023-05-13T14:17:03;8.68;;;6.50;;
25359;SDS011;13311;51.386;0.016;2023-05-13T14:22:04;11.35;;;6.95;;
25359;SDS011;13311;51.386;0.016;2023-05-13T14:27:05;10.18;;;6.88;;
25359;SDS011;13311;51.386;0.016;2023-05-13T14:32:06;9.43;;;7.97;;
25359;SDS011;13311;51.386;0.016;2023-05-13T14:37:07;8.07;;;6.03;;
25359;SDS011;13311;51.386;0.016;2023-05-13T14:42:08;10.82;;;7.53;;
25359;SDS011;13311;51.386;0.016;2023-05-13T14:47:10;8.90;;;7.30;;
25359;SDS011;13311;51.386;0.016;2023-05-13T14:52:11;12.18;;;8.02;;
25359;SDS011;13311;51.386;0.016;2023-05-13T14:57:11;8.98;;;7.72;;
25359;SDS011;13311;51.386;0.016;2023-05-13T15:02:13;10.50;;;7.82;;
25359;SDS011;13311;51.386;0.016;2023-05-13T15:07:16;11.27;;;7.60;;
25359;SDS011;13311;51.386;0.016;2023-05-13T15:12:16;11.90;;;7.85;;
25359;SDS011;13311;51.386;0.016;2023-05-13T15:17:17;10.23;;;8.07;;
25359;SDS011;13311;51.386;0.016;2023-05-13T15:22:18;11.15;;;7.63;;
25359;SDS011;13311;51.386;0.016;2023-05-13T15:27:19;10.10;;;7.32;;
25359;SDS011;13311;51.386;0.016;2023-05-13T15:32:20;8.98;;;6.68;;
25359;SDS011;13311;51.386;0.016;2023-05-13T15:37:21;16.40;;;9.20;;
25359;SDS011;13311;51.386;0.016;2023-05-13T15:42:22;14.82;;;9.70;;
25359;SDS011;13311;51.386;0.016;2023-05-13T15:47:22;12.20;;;9.90;;
25359;SDS011;13311;51.386;0.016;2023-05-13T15:52:23;14.65;;;10.75;;
25359;SDS011;13311;51.386;0.016;2023-05-13T15:57:24;17.85;;;11.25;;
25359;SDS011;13311;51.386;0.016;2023-05-13T16:02:24;14.63;;;11.07;;
25359;SDS011;13311;51.386;0.016;2023-05-13T16:07:27;13.15;;;10.88;;
25359;SDS011;13311;51.386;0.016;2023-05-13T16:12:31;14.00;;;10.77;;
25359;SDS011;13311;51.386;0.016;2023-05-13T16:17:32;11.73;;;9.55;;
25359;SDS011;13311;51.386;0.016;2023-05-13T16:22:35;17.85;;;9.63;;
25359;SDS011;13311;51.386;0.016;2023-05-13T16:27:39;17.27;;;10.45;;
25359;SDS011;13311;51.386;0.016;2023-05-13T16:32:41;13.82;;;10.65;;
25359;SDS011;13311;51.386;0.016;2023-05-13T16:37:42;16.25;;;10.32;;
25359;SDS011;13311;51.386;0.016;2023-05-13T16:42:43;16.17;;;9.98;;
25359;SDS011;13311;51.386;0.016;2023-05-13T16:47:45;15.85;;;9.60;;
25359;SDS011;13311;51.386;0.016;2023-05-13T16:52:46;16.85;;;11.55;;
25359;SDS011;13311;51.386;0.016;2023-05-13T16:57:46;16.63;;;11.93;;
25359;SDS011;13311;51.386;0.016;2023-05-13T17:02:47;22.95;;;11.68;;
25359;SDS011;13311;51.386;0.016;2023-05-13T17:07:48;15.60;;;7.97;;
25359;SDS011;13311;51.386;0.016;2023-05-13T17:12:48;15.32;;;9.65;;
25359;SDS011;13311;51.386;0.016;2023-05-13T17:17:49;12.50;;;9.60;;
25359;SDS011;13311;51.386;0.016;2023-05-13T17:22:50;19.65;;;10.18;;
25359;SDS011;13311;51.386;0.016;2023-05-13T17:27:50;12.20;;;9.57;;
25359;SDS011;13311;51.386;0.016;2023-05-13T17:32:51;13.55;;;9.32;;
25359;SDS011;13311;51.386;0.016;2023-05-13T17:37:52;13.43;;;9.77;;
25359;SDS011;13311;51.386;0.016;2023-05-13T17:42:53;14.00;;;9.90;;
25359;SDS011;13311;51.386;0.016;2023-05-13T17:47:54;16.85;;;10.90;;
25359;SDS011;13311;51.386;0.016;2023-05-13T17:52:54;13.88;;;9.50;;
25359;SDS011;13311;51.386;0.016;2023-05-13T17:57:55;14.13;;;9.65;;
25359;SDS011;13311;51.386;0.016;2023-05-13T18:02:57;11.88;;;9.18;;
25359;SDS011;13311;51.386;0.016;2023-05-13T18:07:58;11.95;;;8.90;;
25359;SDS011;13311;51.386;0.016;2023-05-13T18:12:59;15.70;;;10.68;;
25359;SDS011;13311;51.386;0.016;2023-05-13T18:18:00;18.45;;;10.43;;
25359;SDS011;13311;51.386;0.016;2023-05-13T18:23:02;11.30;;;9.23;;
25359;SDS011;13311;51.386;0.016;2023-05-13T18:28:03;9.63;;;7.68;;
25359;SDS011;13311;51.386;0.016;2023-05-13T18:33:04;11.27;;;8.68;;
25359;SDS011;13311;51.386;0.016;2023-05-13T18:38:04;11.85;;;8.45;;
25359;SDS011;13311;51.386;0.016;2023-05-13T18:43:05;12.23;;;8.75;;
25359;SDS011;13311;51.386;0.016;2023-05-13T18:48:06;10.98;;;9.23;;
25359;SDS011;13311;51.386;0.016;2023-05-13T18:53:07;14.20;;;9.32;;
25359;SDS011;13311;51.386;0.016;2023-05-13T18:58:07;10.75;;;7.60;;
25359;SDS011;13311;51.386;0.016;2023-05-13T19:03:08;13.43;;;8.70;;
25359;SDS011;13311;51.386;0.016;2023-05-13T19:08:09;17.55;;;12.05;;
25359;SDS011;13311;51.386;0.016;2023-05-13T19:13:10;17.38;;;11.02;;
25359;SDS011;13311;51.386;0.016;2023-05-13T19:18:11;17.27;;;11.30;;
25359;SDS011;13311;51.386;0.016;2023-05-13T19:23:12;14.27;;;10.85;;
25359;SDS011;13311;51.386;0.016;2023-05-13T19:28:13;12.23;;;8.65;;
25359;SDS011;13311;51.386;0.016;2023-05-13T19:33:15;17.30;;;10.38;;
25359;SDS011;13311;51.386;0.016;2023-05-13T19:38:16;17.52;;;10.85;;
25359;SDS011;13311;51.386;0.016;2023-05-13T19:43:17;16.15;;;11.73;;
25359;SDS011;13311;51.386;0.016;2023-05-13T19:48:18;18.95;;;11.20;;
25359;SDS011;13311;51.386;0.016;2023-05-13T19:53:18;14.55;;;10.85;;
25359;SDS011;13311;51.386;0.016;2023-05-13T19:58:20;13.73;;;11.10;;
25359;SDS011;13311;51.386;0.016;2023-05-13T20:03:21;14.15;;;10.55;;
25359;SDS011;13311;51.386;0.016;2023-05-13T20:08:22;15.15;;;11.55;;
25359;SDS011;13311;51.386;0.016;2023-05-13T20:13:23;16.80;;;12.18;;
25359;SDS011;13311;51.386;0.016;2023-05-13T20:18:23;16.75;;;11.93;;
25359;SDS011;13311;51.386;0.016;2023-05-13T20:23:24;16.42;;;12.55;;
25359;SDS011;13311;51.386;0.016;2023-05-13T20:28:25;16.48;;;12.13;;
25359;SDS011;13311;51.386;0.016;2023-05-13T20:33:26;13.82;;;11.95;;
25359;SDS011;13311;51.386;0.016;2023-05-13T20:38:27;9.70;;;7.97;;
25359;SDS011;13311;51.386;0.016;2023-05-13T20:43:29;16.98;;;12.13;;
25359;SDS011;13311;51.386;0.016;2023-05-13T20:48:30;15.20;;;12.20;;
25359;SDS011;13311;51.386;0.016;2023-05-13T20:53:33;17.83;;;14.15;;
25359;SDS011;13311;51.386;0.016;2023-05-13T20:58:35;12.65;;;10.95;;
25359;SDS011;13311;51.386;0.016;2023-05-13T21:03:36;14.80;;;12.18;;
25359;SDS011;13311;51.386;0.016;2023-05-13T21:08:36;15.02;;;11.25;;
25359;SDS011;13311;51.386;0.016;2023-05-13T21:13:39;11.95;;;10.05;;
25359;SDS011;13311;51.386;0.016;2023-05-13T21:18:39;13.70;;;11.45;;
25359;SDS011;13311;51.386;0.016;2023-05-13T21:23:41;15.30;;;11.18;;
25359;SDS011;13311;51.386;0.016;2023-05-13T21:28:42;15.63;;;11.98;;
25359;SDS011;13311;51.386;0.016;2023-05-13T21:33:43;17.25;;;12.40;;
25359;SDS011;13311;51.386;0.016;2023-05-13T21:38:44;14.52;;;11.45;;
25359;SDS011;13311;51.386;0.016;2023-05-13T21:43:45;15.10;;;12.63;;
25359;SDS011;13311;51.386;0.016;2023-05-13T21:48:45;17.35;;;12.90;;
25359;SDS011;13311;51.386;0.016;2023-05-13T21:53:47;17.85;;;13.07;;
25359;SDS011;13311;51.386;0.016;2023-05-13T21:58:48;17.08;;;13.60;;
25359;SDS011;13311;51.386;0.016;2023-05-13T22:03:49;22.40;;;14.80;;
25359;SDS011;13311;51.386;0.016;2023-05-13T22:08:49;17.75;;;13.65;;
25359;SDS011;13311;51.386;0.016;2023-05-13T22:13:50;18.88;;;14.90;;
25359;SDS011;13311;51.386;0.016;2023-05-13T22:18:51;18.67;;;16.38;;
25359;SDS011;13311;51.386;0.016;2023-05-13T22:23:54;18.55;;;15.70;;
25359;SDS011;13311;51.386;0.016;2023-05-13T22:28:55;20.75;;;15.70;;
25359;SDS011;13311;51.386;0.016;2023-05-13T22:33:55;18.48;;;14.82;;
25359;SDS011;13311;51.386;0.016;2023-05-13T22:38:56;17.15;;;14.85;;
25359;SDS011;13311;51.386;0.016;2023-05-13T22:43:57;18.98;;;14.43;;
25359;SDS011;13311;51.386;0.016;2023-05-13T22:48:58;23.52;;;16.13;;
25359;SDS011;13311;51.386;0.016;2023-05-13T22:53:58;21.33;;;14.93;;
25359;SDS011;13311;51.386;0.016;2023-05-13T22:58:59;124.13;;;20.92;;
25359;SDS011;13311;51.386;0.016;2023-05-13T23:04:00;17.95;;;15.07;;
25359;SDS011;13311;51.386;0.016;2023-05-13T23:09:03;19.60;;;15.43;;
25359;SDS011;13311;51.386;0.016;2023-05-13T23:14:04;16.13;;;14.32;;
25359;SDS011;13311;51.386;0.016;2023-05-13T23:19:05;15.65;;;13.75;;
25359;SDS011;13311;51.386;0.016;2023-05-13T23:24:05;18.77;;;13.73;;
25359;SDS011;13311;51.386;0.016;2023-05-13T23:29:06;18.33;;;14.57;;
25359;SDS011;13311;51.386;0.016;2023-05-13T23:34:07;18.75;;;15.95;;
25359;SDS011;13311;51.386;0.016;2023-05-13T23:39:08;15.05;;;12.77;;
25359;SDS011;13311;51.386;0.016;2023-05-13T23:44:09;17.67;;;14.95;;
25359;SDS011;13311;51.386;0.016;2023-05-13T23:49:10;19.67;;;16.17;;
25359;SDS011;13311;51.386;0.016;2023-05-13T23:54:11;21.17;;;16.50;;
25359;SDS011;13311;51.386;0.016;2023-05-13T23:59:12;18.30;;;15.05;;
